sensor_id;sensor_type;location;lat;lon;timestamp;temperature;humidity
78876;DHT22;68253;52.506;5.486;2024-01-30T00:00:01;7.10;76.50
78876;DHT22;68253;52.506;5.486;2024-01-30T00:02:27;7.10;76.50
78876;DHT22;68253;52.506;5.486;2024-01-30T00:04:53;7.10;76.50
78876;DHT22;68253;52.506;5.486;2024-01-30T00:07:19;7.00;76.60
78876;DHT22;68253;52.506;5.486;2024-01-30T00:09:47;7.00;76.70
78876;DHT22;68253;52.506;5.486;2024-01-30T00:12:14;7.00;76.60
78876;DHT22;68253;52.506;5.486;2024-01-30T00:14:42;7.00;76.70
78876;DHT22;68253;52.506;5.486;2024-01-30T00:17:09;7.00;76.70
78876;DHT22;68253;52.506;5.486;2024-01-30T00:19:35;7.00;76.60
78876;DHT22;68253;52.506;5.486;2024-01-30T00:22:02;7.00;76.70
78876;DHT22;68253;52.506;5.486;2024-01-30T00:24:28;7.00;76.70
78876;DHT22;68253;52.506;5.486;2024-01-30T00:26:54;7.00;76.70
78876;DHT22;68253;52.506;5.486;2024-01-30T00:29:20;7.00;76.70
78876;DHT22;68253;52.506;5.486;2024-01-30T00:31:48;7.00;76.90
78876;DHT22;68253;52.506;5.486;2024-01-30T00:34:14;7.00;77.10
78876;DHT22;68253;52.506;5.486;2024-01-30T00:36:40;7.00;77.00
78876;DHT22;68253;52.506;5.486;2024-01-30T00:39:06;7.00;77.00
78876;DHT22;68253;52.506;5.486;2024-01-30T00:41:35;7.00;76.90
78876;DHT22;68253;52.506;5.486;2024-01-30T00:44:01;7.00;76.90
78876;DHT22;68253;52.506;5.486;2024-01-30T00:46:27;7.00;76.90
78876;DHT22;68253;52.506;5.486;2024-01-30T00:48:53;7.00;77.00
78876;DHT22;68253;52.506;5.486;2024-01-30T00:51:19;7.00;77.00
78876;DHT22;68253;52.506;5.486;2024-01-30T00:53:45;7.00;77.00
78876;DHT22;68253;52.506;5.486;2024-01-30T00:56:11;7.00;77.00
78876;DHT22;68253;52.506;5.486;2024-01-30T00:58:38;7.00;77.10
78876;DHT22;68253;52.506;5.486;2024-01-30T01:01:04;7.00;77.10
78876;DHT22;68253;52.506;5.486;2024-01-30T01:03:30;7.00;77.20
78876;DHT22;68253;52.506;5.486;2024-01-30T01:05:56;7.10;77.20
78876;DHT22;68253;52.506;5.486;2024-01-30T01:08:22;7.20;77.20
78876;DHT22;68253;52.506;5.486;2024-01-30T01:10:48;7.10;77.20
78876;DHT22;68253;52.506;5.486;2024-01-30T01:13:14;7.20;77.10
78876;DHT22;68253;52.506;5.486;2024-01-30T01:15:40;7.20;77.10
78876;DHT22;68253;52.506;5.486;2024-01-30T01:18:06;7.20;77.10
78876;DHT22;68253;52.506;5.486;2024-01-30T01:20:32;7.20;77.00
78876;DHT22;68253;52.506;5.486;2024-01-30T01:22:59;7.20;77.10
78876;DHT22;68253;52.506;5.486;2024-01-30T01:25:25;7.20;77.10
78876;DHT22;68253;52.506;5.486;2024-01-30T01:27:51;7.20;77.10
78876;DHT22;68253;52.506;5.486;2024-01-30T01:30:18;7.20;77.10
78876;DHT22;68253;52.506;5.486;2024-01-30T01:32:50;7.20;77.10
78876;DHT22;68253;52.506;5.486;2024-01-30T01:35:22;7.20;77.10
78876;DHT22;68253;52.506;5.486;2024-01-30T01:37:50;7.20;77.10
78876;DHT22;68253;52.506;5.486;2024-01-30T01:40:24;7.20;77.00
78876;DHT22;68253;52.506;5.486;2024-01-30T01:42:51;7.20;77.00
78876;DHT22;68253;52.506;5.486;2024-01-30T01:45:18;7.20;77.00
78876;DHT22;68253;52.506;5.486;2024-01-30T01:47:52;7.20;76.90
78876;DHT22;68253;52.506;5.486;2024-01-30T01:50:20;7.20;76.90
78876;DHT22;68253;52.506;5.486;2024-01-30T01:52:47;7.20;76.90
78876;DHT22;68253;52.506;5.486;2024-01-30T01:55:14;7.20;76.90
78876;DHT22;68253;52.506;5.486;2024-01-30T01:57:41;7.20;76.80
78876;DHT22;68253;52.506;5.486;2024-01-30T02:00:09;7.20;76.90
78876;DHT22;68253;52.506;5.486;2024-01-30T02:02:37;7.20;76.90
78876;DHT22;68253;52.506;5.486;2024-01-30T02:05:05;7.20;76.90
78876;DHT22;68253;52.506;5.486;2024-01-30T02:07:31;7.20;76.90
78876;DHT22;68253;52.506;5.486;2024-01-30T02:09:57;7.20;76.80
78876;DHT22;68253;52.506;5.486;2024-01-30T02:12:23;7.10;76.90
78876;DHT22;68253;52.506;5.486;2024-01-30T02:14:50;7.20;76.90
78876;DHT22;68253;52.506;5.486;2024-01-30T02:17:16;7.20;76.90
78876;DHT22;68253;52.506;5.486;2024-01-30T02:19:42;7.20;76.90
78876;DHT22;68253;52.506;5.486;2024-01-30T02:22:09;7.20;77.00
78876;DHT22;68253;52.506;5.486;2024-01-30T02:24:35;7.20;76.90
78876;DHT22;68253;52.506;5.486;2024-01-30T02:27:01;7.20;77.00
78876;DHT22;68253;52.506;5.486;2024-01-30T02:29:27;7.20;77.00
78876;DHT22;68253;52.506;5.486;2024-01-30T02:31:54;7.20;77.00
78876;DHT22;68253;52.506;5.486;2024-01-30T02:34:20;7.20;77.00
78876;DHT22;68253;52.506;5.486;2024-01-30T02:36:47;7.30;77.00
78876;DHT22;68253;52.506;5.486;2024-01-30T02:39:13;7.30;76.90
78876;DHT22;68253;52.506;5.486;2024-01-30T02:41:39;7.40;76.80
78876;DHT22;68253;52.506;5.486;2024-01-30T02:44:05;7.40;76.80
78876;DHT22;68253;52.506;5.486;2024-01-30T02:46:31;7.40;76.70
78876;DHT22;68253;52.506;5.486;2024-01-30T02:48:57;7.40;76.70
78876;DHT22;68253;52.506;5.486;2024-01-30T02:51:23;7.40;76.70
78876;DHT22;68253;52.506;5.486;2024-01-30T02:53:49;7.40;76.60
78876;DHT22;68253;52.506;5.486;2024-01-30T02:56:15;7.40;76.70
78876;DHT22;68253;52.506;5.486;2024-01-30T02:58:42;7.30;76.60
78876;DHT22;68253;52.506;5.486;2024-01-30T03:01:08;7.30;76.60
78876;DHT22;68253;52.506;5.486;2024-01-30T03:03:34;7.30;76.70
78876;DHT22;68253;52.506;5.486;2024-01-30T03:06:02;7.20;76.70
78876;DHT22;68253;52.506;5.486;2024-01-30T03:08:28;7.20;76.60
78876;DHT22;68253;52.506;5.486;2024-01-30T03:10:54;7.20;76.60
78876;DHT22;68253;52.506;5.486;2024-01-30T03:13:21;7.20;76.60
78876;DHT22;68253;52.506;5.486;2024-01-30T03:15:49;7.20;76.60
78876;DHT22;68253;52.506;5.486;2024-01-30T03:18:15;7.20;76.60
78876;DHT22;68253;52.506;5.486;2024-01-30T03:20:41;7.20;76.60
78876;DHT22;68253;52.506;5.486;2024-01-30T03:23:07;7.20;76.70
78876;DHT22;68253;52.506;5.486;2024-01-30T03:25:33;7.20;76.70
78876;DHT22;68253;52.506;5.486;2024-01-30T03:27:59;7.20;76.70
78876;DHT22;68253;52.506;5.486;2024-01-30T03:30:25;7.20;76.70
78876;DHT22;68253;52.506;5.486;2024-01-30T03:32:52;7.20;76.70
78876;DHT22;68253;52.506;5.486;2024-01-30T03:35:19;7.20;76.80
78876;DHT22;68253;52.506;5.486;2024-01-30T03:37:45;7.20;76.70
78876;DHT22;68253;52.506;5.486;2024-01-30T03:40:11;7.20;76.70
78876;DHT22;68253;52.506;5.486;2024-01-30T03:42:37;7.20;76.70
78876;DHT22;68253;52.506;5.486;2024-01-30T03:45:04;7.20;76.70
78876;DHT22;68253;52.506;5.486;2024-01-30T03:47:30;7.20;76.70
78876;DHT22;68253;52.506;5.486;2024-01-30T03:49:56;7.20;76.70
78876;DHT22;68253;52.506;5.486;2024-01-30T03:52:22;7.20;76.60
78876;DHT22;68253;52.506;5.486;2024-01-30T03:54:48;7.20;76.60
78876;DHT22;68253;52.506;5.486;2024-01-30T03:57:15;7.20;76.60
78876;DHT22;68253;52.506;5.486;2024-01-30T03:59:44;7.20;76.60
78876;DHT22;68253;52.506;5.486;2024-01-30T04:02:11;7.20;76.60
78876;DHT22;68253;52.506;5.486;2024-01-30T04:04:37;7.20;76.60
78876;DHT22;68253;52.506;5.486;2024-01-30T04:07:04;7.20;76.60
78876;DHT22;68253;52.506;5.486;2024-01-30T04:09:30;7.20;76.60
78876;DHT22;68253;52.506;5.486;2024-01-30T04:11:56;7.20;76.60
78876;DHT22;68253;52.506;5.486;2024-01-30T04:14:22;7.20;76.60
78876;DHT22;68253;52.506;5.486;2024-01-30T04:16:48;7.20;76.60
78876;DHT22;68253;52.506;5.486;2024-01-30T04:19:14;7.20;76.50
78876;DHT22;68253;52.506;5.486;2024-01-30T04:21:40;7.20;76.40
78876;DHT22;68253;52.506;5.486;2024-01-30T04:24:06;7.20;76.40
78876;DHT22;68253;52.506;5.486;2024-01-30T04:26:32;7.30;76.40
78876;DHT22;68253;52.506;5.486;2024-01-30T04:28:58;7.20;76.40
78876;DHT22;68253;52.506;5.486;2024-01-30T04:31:25;7.30;76.30
78876;DHT22;68253;52.506;5.486;2024-01-30T04:33:51;7.20;76.30
78876;DHT22;68253;52.506;5.486;2024-01-30T04:36:17;7.20;76.30
78876;DHT22;68253;52.506;5.486;2024-01-30T04:38:43;7.20;76.20
78876;DHT22;68253;52.506;5.486;2024-01-30T04:41:10;7.20;76.30
78876;DHT22;68253;52.506;5.486;2024-01-30T04:43:36;7.20;76.30
78876;DHT22;68253;52.506;5.486;2024-01-30T04:46:02;7.20;76.30
78876;DHT22;68253;52.506;5.486;2024-01-30T04:48:28;7.20;76.20
78876;DHT22;68253;52.506;5.486;2024-01-30T04:50:54;7.20;76.30
78876;DHT22;68253;52.506;5.486;2024-01-30T04:53:21;7.30;76.20
78876;DHT22;68253;52.506;5.486;2024-01-30T04:55:48;7.30;76.20
78876;DHT22;68253;52.506;5.486;2024-01-30T04:58:14;7.30;76.20
78876;DHT22;68253;52.506;5.486;2024-01-30T05:00:40;7.30;76.20
78876;DHT22;68253;52.506;5.486;2024-01-30T05:03:06;7.30;76.30
78876;DHT22;68253;52.506;5.486;2024-01-30T05:05:32;7.30;76.20
78876;DHT22;68253;52.506;5.486;2024-01-30T05:07:58;7.40;76.20
78876;DHT22;68253;52.506;5.486;2024-01-30T05:10:24;7.30;76.10
78876;DHT22;68253;52.506;5.486;2024-01-30T05:12:50;7.30;76.10
78876;DHT22;68253;52.506;5.486;2024-01-30T05:15:17;7.30;76.20
78876;DHT22;68253;52.506;5.486;2024-01-30T05:17:43;7.30;76.20
78876;DHT22;68253;52.506;5.486;2024-01-30T05:20:10;7.40;76.20
78876;DHT22;68253;52.506;5.486;2024-01-30T05:22:36;7.40;76.10
78876;DHT22;68253;52.506;5.486;2024-01-30T05:25:04;7.40;76.10
78876;DHT22;68253;52.506;5.486;2024-01-30T05:27:30;7.40;76.10
78876;DHT22;68253;52.506;5.486;2024-01-30T05:29:56;7.40;76.10
78876;DHT22;68253;52.506;5.486;2024-01-30T05:32:22;7.40;76.10
78876;DHT22;68253;52.506;5.486;2024-01-30T05:34:48;7.50;76.00
78876;DHT22;68253;52.506;5.486;2024-01-30T05:37:16;7.50;76.00
78876;DHT22;68253;52.506;5.486;2024-01-30T05:39:43;7.50;76.00
78876;DHT22;68253;52.506;5.486;2024-01-30T05:42:09;7.50;76.00
78876;DHT22;68253;52.506;5.486;2024-01-30T05:44:36;7.50;75.90
78876;DHT22;68253;52.506;5.486;2024-01-30T05:47:02;7.50;76.00
78876;DHT22;68253;52.506;5.486;2024-01-30T05:49:28;7.50;75.90
78876;DHT22;68253;52.506;5.486;2024-01-30T05:51:54;7.60;75.90
78876;DHT22;68253;52.506;5.486;2024-01-30T05:54:20;7.60;75.80
78876;DHT22;68253;52.506;5.486;2024-01-30T05:56:46;7.60;75.80
78876;DHT22;68253;52.506;5.486;2024-01-30T05:59:12;7.60;75.80
78876;DHT22;68253;52.506;5.486;2024-01-30T06:01:45;7.70;75.80
78876;DHT22;68253;52.506;5.486;2024-01-30T06:04:12;7.60;75.70
78876;DHT22;68253;52.506;5.486;2024-01-30T06:06:38;7.60;75.80
78876;DHT22;68253;52.506;5.486;2024-01-30T06:09:05;7.70;75.80
78876;DHT22;68253;52.506;5.486;2024-01-30T06:11:31;7.70;75.80
78876;DHT22;68253;52.506;5.486;2024-01-30T06:13:58;7.70;75.80
78876;DHT22;68253;52.506;5.486;2024-01-30T06:16:24;7.70;75.90
78876;DHT22;68253;52.506;5.486;2024-01-30T06:18:50;7.70;75.80
78876;DHT22;68253;52.506;5.486;2024-01-30T06:21:16;7.70;75.90
78876;DHT22;68253;52.506;5.486;2024-01-30T06:23:42;7.70;75.90
78876;DHT22;68253;52.506;5.486;2024-01-30T06:26:09;7.70;75.90
78876;DHT22;68253;52.506;5.486;2024-01-30T06:28:35;7.70;75.90
78876;DHT22;68253;52.506;5.486;2024-01-30T06:31:01;7.70;76.00
78876;DHT22;68253;52.506;5.486;2024-01-30T06:33:27;7.70;76.00
78876;DHT22;68253;52.506;5.486;2024-01-30T06:35:53;7.70;76.00
78876;DHT22;68253;52.506;5.486;2024-01-30T06:38:20;7.70;76.10
78876;DHT22;68253;52.506;5.486;2024-01-30T06:40:46;7.70;76.00
78876;DHT22;68253;52.506;5.486;2024-01-30T06:43:12;7.70;76.10
78876;DHT22;68253;52.506;5.486;2024-01-30T06:45:38;7.70;76.10
78876;DHT22;68253;52.506;5.486;2024-01-30T06:48:04;7.70;76.20
78876;DHT22;68253;52.506;5.486;2024-01-30T06:50:30;7.70;76.10
78876;DHT22;68253;52.506;5.486;2024-01-30T06:52:57;7.80;76.20
78876;DHT22;68253;52.506;5.486;2024-01-30T06:55:23;7.80;76.20
78876;DHT22;68253;52.506;5.486;2024-01-30T06:57:49;7.80;76.20
78876;DHT22;68253;52.506;5.486;2024-01-30T07:00:15;7.80;76.30
78876;DHT22;68253;52.506;5.486;2024-01-30T07:02:42;7.80;76.30
78876;DHT22;68253;52.506;5.486;2024-01-30T07:05:08;7.80;76.30
78876;DHT22;68253;52.506;5.486;2024-01-30T07:07:34;7.80;76.40
78876;DHT22;68253;52.506;5.486;2024-01-30T07:10:00;7.80;76.40
78876;DHT22;68253;52.506;5.486;2024-01-30T07:12:27;7.80;76.40
78876;DHT22;68253;52.506;5.486;2024-01-30T07:14:56;7.80;76.40
78876;DHT22;68253;52.506;5.486;2024-01-30T07:17:22;7.90;76.40
78876;DHT22;68253;52.506;5.486;2024-01-30T07:19:48;7.90;76.40
78876;DHT22;68253;52.506;5.486;2024-01-30T07:22:14;7.90;76.40
78876;DHT22;68253;52.506;5.486;2024-01-30T07:24:43;7.90;76.40
78876;DHT22;68253;52.506;5.486;2024-01-30T07:27:14;8.00;76.40
78876;DHT22;68253;52.506;5.486;2024-01-30T07:29:40;8.00;76.50
78876;DHT22;68253;52.506;5.486;2024-01-30T07:32:06;8.00;76.50
78876;DHT22;68253;52.506;5.486;2024-01-30T07:34:33;8.00;76.60
78876;DHT22;68253;52.506;5.486;2024-01-30T07:36:59;8.00;76.60
78876;DHT22;68253;52.506;5.486;2024-01-30T07:39:25;8.00;76.60
78876;DHT22;68253;52.506;5.486;2024-01-30T07:41:51;8.00;76.60
78876;DHT22;68253;52.506;5.486;2024-01-30T07:44:17;8.00;76.70
78876;DHT22;68253;52.506;5.486;2024-01-30T07:46:43;8.00;76.70
78876;DHT22;68253;52.506;5.486;2024-01-30T07:49:09;8.10;76.80
78876;DHT22;68253;52.506;5.486;2024-01-30T07:51:36;8.10;76.70
78876;DHT22;68253;52.506;5.486;2024-01-30T07:54:02;8.10;76.80
78876;DHT22;68253;52.506;5.486;2024-01-30T07:56:28;8.10;76.70
78876;DHT22;68253;52.506;5.486;2024-01-30T07:58:54;8.20;76.80
78876;DHT22;68253;52.506;5.486;2024-01-30T08:01:20;8.20;76.80
78876;DHT22;68253;52.506;5.486;2024-01-30T08:03:46;8.20;76.70
78876;DHT22;68253;52.506;5.486;2024-01-30T08:06:13;8.30;76.70
78876;DHT22;68253;52.506;5.486;2024-01-30T08:08:39;8.30;76.70
78876;DHT22;68253;52.506;5.486;2024-01-30T08:11:05;8.40;76.70
78876;DHT22;68253;52.506;5.486;2024-01-30T08:13:31;8.40;76.70
78876;DHT22;68253;52.506;5.486;2024-01-30T08:15:57;8.50;76.70
78876;DHT22;68253;52.506;5.486;2024-01-30T08:18:23;8.50;76.70
78876;DHT22;68253;52.506;5.486;2024-01-30T08:20:49;8.60;76.60
78876;DHT22;68253;52.506;5.486;2024-01-30T08:23:15;8.60;76.70
78876;DHT22;68253;52.506;5.486;2024-01-30T08:25:42;8.60;76.60
78876;DHT22;68253;52.506;5.486;2024-01-30T08:28:08;8.60;76.60
78876;DHT22;68253;52.506;5.486;2024-01-30T08:30:34;8.80;76.50
78876;DHT22;68253;52.506;5.486;2024-01-30T08:33:00;8.80;76.50
78876;DHT22;68253;52.506;5.486;2024-01-30T08:35:26;8.80;76.40
78876;DHT22;68253;52.506;5.486;2024-01-30T08:37:53;8.90;76.30
78876;DHT22;68253;52.506;5.486;2024-01-30T08:40:20;8.90;76.20
78876;DHT22;68253;52.506;5.486;2024-01-30T08:42:46;9.00;76.20
78876;DHT22;68253;52.506;5.486;2024-01-30T08:45:12;9.00;76.20
78876;DHT22;68253;52.506;5.486;2024-01-30T08:47:39;9.00;76.10
78876;DHT22;68253;52.506;5.486;2024-01-30T08:50:06;9.00;76.00
78876;DHT22;68253;52.506;5.486;2024-01-30T08:52:32;9.10;76.00
78876;DHT22;68253;52.506;5.486;2024-01-30T08:55:00;9.20;76.00
78876;DHT22;68253;52.506;5.486;2024-01-30T08:57:26;9.20;76.10
78876;DHT22;68253;52.506;5.486;2024-01-30T08:59:55;9.20;76.00
78876;DHT22;68253;52.506;5.486;2024-01-30T09:02:21;9.20;76.10
78876;DHT22;68253;52.506;5.486;2024-01-30T09:04:47;9.30;76.10
78876;DHT22;68253;52.506;5.486;2024-01-30T09:07:13;9.40;76.10
78876;DHT22;68253;52.506;5.486;2024-01-30T09:09:40;9.40;76.20
78876;DHT22;68253;52.506;5.486;2024-01-30T09:12:07;9.50;76.10
78876;DHT22;68253;52.506;5.486;2024-01-30T09:14:36;9.60;76.00
78876;DHT22;68253;52.506;5.486;2024-01-30T09:17:02;9.70;75.90
78876;DHT22;68253;52.506;5.486;2024-01-30T09:19:29;9.80;75.80
78876;DHT22;68253;52.506;5.486;2024-01-30T09:21:55;9.90;75.70
78876;DHT22;68253;52.506;5.486;2024-01-30T09:24:21;10.00;75.60
78876;DHT22;68253;52.506;5.486;2024-01-30T09:26:48;10.00;75.40
78876;DHT22;68253;52.506;5.486;2024-01-30T09:29:14;10.10;75.30
78876;DHT22;68253;52.506;5.486;2024-01-30T09:31:43;10.20;75.10
78876;DHT22;68253;52.506;5.486;2024-01-30T09:34:09;10.20;75.00
78876;DHT22;68253;52.506;5.486;2024-01-30T09:36:35;10.30;74.90
78876;DHT22;68253;52.506;5.486;2024-01-30T09:39:02;10.40;74.60
78876;DHT22;68253;52.506;5.486;2024-01-30T09:41:32;10.40;74.40
78876;DHT22;68253;52.506;5.486;2024-01-30T09:43:59;10.50;74.20
78876;DHT22;68253;52.506;5.486;2024-01-30T09:46:27;10.50;74.10
78876;DHT22;68253;52.506;5.486;2024-01-30T09:48:55;10.60;74.10
78876;DHT22;68253;52.506;5.486;2024-01-30T09:51:22;10.60;73.90
78876;DHT22;68253;52.506;5.486;2024-01-30T09:53:49;10.60;73.80
78876;DHT22;68253;52.506;5.486;2024-01-30T09:56:16;10.60;73.70
78876;DHT22;68253;52.506;5.486;2024-01-30T09:58:42;10.70;73.60
78876;DHT22;68253;52.506;5.486;2024-01-30T10:01:08;10.70;73.60
78876;DHT22;68253;52.506;5.486;2024-01-30T10:03:35;10.70;73.60
78876;DHT22;68253;52.506;5.486;2024-01-30T10:06:01;10.70;73.50
78876;DHT22;68253;52.506;5.486;2024-01-30T10:08:28;10.70;73.50
78876;DHT22;68253;52.506;5.486;2024-01-30T10:10:55;10.70;73.40
78876;DHT22;68253;52.506;5.486;2024-01-30T10:13:22;10.70;73.40
78876;DHT22;68253;52.506;5.486;2024-01-30T10:15:48;10.70;73.30
78876;DHT22;68253;52.506;5.486;2024-01-30T10:18:14;10.70;73.30
78876;DHT22;68253;52.506;5.486;2024-01-30T10:20:41;10.70;73.20
78876;DHT22;68253;52.506;5.486;2024-01-30T10:23:07;10.70;73.00
78876;DHT22;68253;52.506;5.486;2024-01-30T10:25:34;10.70;73.00
78876;DHT22;68253;52.506;5.486;2024-01-30T10:28:00;10.70;73.00
78876;DHT22;68253;52.506;5.486;2024-01-30T10:30:27;10.70;73.00
78876;DHT22;68253;52.506;5.486;2024-01-30T10:32:53;10.70;73.00
78876;DHT22;68253;52.506;5.486;2024-01-30T10:35:19;10.70;73.00
78876;DHT22;68253;52.506;5.486;2024-01-30T10:37:49;10.70;72.80
78876;DHT22;68253;52.506;5.486;2024-01-30T10:40:15;10.80;72.70
78876;DHT22;68253;52.506;5.486;2024-01-30T10:42:43;10.70;72.70
78876;DHT22;68253;52.506;5.486;2024-01-30T10:45:11;10.80;72.60
78876;DHT22;68253;52.506;5.486;2024-01-30T10:47:49;10.80;72.20
78876;DHT22;68253;52.506;5.486;2024-01-30T10:50:16;10.80;72.10
78876;DHT22;68253;52.506;5.486;2024-01-30T10:52:43;10.70;71.90
78876;DHT22;68253;52.506;5.486;2024-01-30T10:55:10;10.70;71.60
78876;DHT22;68253;52.506;5.486;2024-01-30T10:57:36;10.70;71.40
78876;DHT22;68253;52.506;5.486;2024-01-30T11:00:13;10.70;71.20
78876;DHT22;68253;52.506;5.486;2024-01-30T11:02:45;10.60;71.00
78876;DHT22;68253;52.506;5.486;2024-01-30T11:05:12;10.60;70.10
78876;DHT22;68253;52.506;5.486;2024-01-30T11:07:39;10.40;69.90
78876;DHT22;68253;52.506;5.486;2024-01-30T11:10:09;10.40;69.80
78876;DHT22;68253;52.506;5.486;2024-01-30T11:12:39;10.50;69.40
78876;DHT22;68253;52.506;5.486;2024-01-30T11:15:15;10.80;68.80
78876;DHT22;68253;52.506;5.486;2024-01-30T11:20:12;10.90;66.90
78876;DHT22;68253;52.506;5.486;2024-01-30T11:22:41;10.80;67.30
78876;DHT22;68253;52.506;5.486;2024-01-30T11:25:12;10.70;67.50
78876;DHT22;68253;52.506;5.486;2024-01-30T11:27:38;10.60;67.70
78876;DHT22;68253;52.506;5.486;2024-01-30T11:30:05;10.50;68.20
78876;DHT22;68253;52.506;5.486;2024-01-30T11:32:32;10.50;68.20
78876;DHT22;68253;52.506;5.486;2024-01-30T11:34:58;10.50;68.20
78876;DHT22;68253;52.506;5.486;2024-01-30T11:37:27;10.40;68.30
78876;DHT22;68253;52.506;5.486;2024-01-30T11:39:54;10.20;68.60
78876;DHT22;68253;52.506;5.486;2024-01-30T11:42:23;10.10;69.00
78876;DHT22;68253;52.506;5.486;2024-01-30T11:44:50;10.00;69.30
78876;DHT22;68253;52.506;5.486;2024-01-30T11:47:16;10.00;69.50
78876;DHT22;68253;52.506;5.486;2024-01-30T11:49:43;9.90;69.60
78876;DHT22;68253;52.506;5.486;2024-01-30T11:52:10;9.70;69.70
78876;DHT22;68253;52.506;5.486;2024-01-30T11:54:39;9.70;70.00
78876;DHT22;68253;52.506;5.486;2024-01-30T11:57:05;9.60;70.00
78876;DHT22;68253;52.506;5.486;2024-01-30T11:59:31;9.60;70.00
78876;DHT22;68253;52.506;5.486;2024-01-30T12:01:58;9.50;70.20
78876;DHT22;68253;52.506;5.486;2024-01-30T12:04:28;9.50;70.50
78876;DHT22;68253;52.506;5.486;2024-01-30T12:06:55;9.40;70.60
78876;DHT22;68253;52.506;5.486;2024-01-30T12:09:21;9.50;70.70
78876;DHT22;68253;52.506;5.486;2024-01-30T12:11:49;9.40;70.80
78876;DHT22;68253;52.506;5.486;2024-01-30T12:14:17;9.40;70.90
78876;DHT22;68253;52.506;5.486;2024-01-30T12:16:43;9.40;71.20
78876;DHT22;68253;52.506;5.486;2024-01-30T12:19:09;9.30;71.40
78876;DHT22;68253;52.506;5.486;2024-01-30T12:21:36;9.20;71.70
78876;DHT22;68253;52.506;5.486;2024-01-30T12:24:02;9.20;71.90
78876;DHT22;68253;52.506;5.486;2024-01-30T12:26:28;9.20;71.80
78876;DHT22;68253;52.506;5.486;2024-01-30T12:28:55;9.20;71.90
78876;DHT22;68253;52.506;5.486;2024-01-30T12:31:28;9.20;71.70
78876;DHT22;68253;52.506;5.486;2024-01-30T12:33:54;9.20;71.60
78876;DHT22;68253;52.506;5.486;2024-01-30T12:36:21;9.20;71.50
78876;DHT22;68253;52.506;5.486;2024-01-30T12:38:48;9.20;71.20
78876;DHT22;68253;52.506;5.486;2024-01-30T12:41:14;9.20;71.30
78876;DHT22;68253;52.506;5.486;2024-01-30T12:43:42;9.30;71.30
78876;DHT22;68253;52.506;5.486;2024-01-30T12:46:08;9.30;71.40
78876;DHT22;68253;52.506;5.486;2024-01-30T12:48:34;9.30;71.50
78876;DHT22;68253;52.506;5.486;2024-01-30T12:51:00;9.30;71.80
78876;DHT22;68253;52.506;5.486;2024-01-30T12:53:27;9.20;71.90
78876;DHT22;68253;52.506;5.486;2024-01-30T12:55:53;9.20;72.00
78876;DHT22;68253;52.506;5.486;2024-01-30T12:58:20;9.10;72.20
78876;DHT22;68253;52.506;5.486;2024-01-30T13:00:46;9.00;72.30
78876;DHT22;68253;52.506;5.486;2024-01-30T13:03:13;9.00;72.70
78876;DHT22;68253;52.506;5.486;2024-01-30T13:05:39;9.00;73.20
78876;DHT22;68253;52.506;5.486;2024-01-30T13:08:05;9.00;73.60
78876;DHT22;68253;52.506;5.486;2024-01-30T13:10:31;8.90;74.10
78876;DHT22;68253;52.506;5.486;2024-01-30T13:12:57;8.80;74.50
78876;DHT22;68253;52.506;5.486;2024-01-30T13:15:24;8.80;75.00
78876;DHT22;68253;52.506;5.486;2024-01-30T13:17:50;8.60;75.50
78876;DHT22;68253;52.506;5.486;2024-01-30T13:20:16;8.60;75.90
78876;DHT22;68253;52.506;5.486;2024-01-30T13:22:43;8.60;76.10
78876;DHT22;68253;52.506;5.486;2024-01-30T13:25:09;8.50;76.30
78876;DHT22;68253;52.506;5.486;2024-01-30T13:27:36;8.50;76.50
78876;DHT22;68253;52.506;5.486;2024-01-30T13:30:03;8.40;76.70
78876;DHT22;68253;52.506;5.486;2024-01-30T13:32:30;8.40;76.80
78876;DHT22;68253;52.506;5.486;2024-01-30T13:34:56;8.40;76.80
78876;DHT22;68253;52.506;5.486;2024-01-30T13:37:22;8.40;76.90
78876;DHT22;68253;52.506;5.486;2024-01-30T13:39:48;8.40;77.00
78876;DHT22;68253;52.506;5.486;2024-01-30T13:42:15;8.30;77.10
78876;DHT22;68253;52.506;5.486;2024-01-30T13:44:41;8.30;77.30
78876;DHT22;68253;52.506;5.486;2024-01-30T13:47:10;8.20;77.50
78876;DHT22;68253;52.506;5.486;2024-01-30T13:49:36;8.20;77.80
78876;DHT22;68253;52.506;5.486;2024-01-30T13:52:02;8.20;78.00
78876;DHT22;68253;52.506;5.486;2024-01-30T13:54:29;8.10;78.20
78876;DHT22;68253;52.506;5.486;2024-01-30T13:56:57;8.10;78.40
78876;DHT22;68253;52.506;5.486;2024-01-30T13:59:23;8.10;78.60
78876;DHT22;68253;52.506;5.486;2024-01-30T14:01:51;8.10;78.80
78876;DHT22;68253;52.506;5.486;2024-01-30T14:04:17;8.10;79.00
78876;DHT22;68253;52.506;5.486;2024-01-30T14:06:43;8.00;79.00
78876;DHT22;68253;52.506;5.486;2024-01-30T14:09:09;8.00;79.20
78876;DHT22;68253;52.506;5.486;2024-01-30T14:11:36;8.00;79.30
78876;DHT22;68253;52.506;5.486;2024-01-30T14:14:03;8.00;79.30
78876;DHT22;68253;52.506;5.486;2024-01-30T14:16:29;8.00;79.60
78876;DHT22;68253;52.506;5.486;2024-01-30T14:18:55;8.00;79.70
78876;DHT22;68253;52.506;5.486;2024-01-30T14:21:21;8.00;79.80
78876;DHT22;68253;52.506;5.486;2024-01-30T14:23:47;8.00;80.00
78876;DHT22;68253;52.506;5.486;2024-01-30T14:26:13;8.00;80.00
78876;DHT22;68253;52.506;5.486;2024-01-30T14:28:39;8.00;80.10
78876;DHT22;68253;52.506;5.486;2024-01-30T14:31:05;8.00;80.20
78876;DHT22;68253;52.506;5.486;2024-01-30T14:33:32;8.00;80.30
78876;DHT22;68253;52.506;5.486;2024-01-30T14:35:58;8.00;80.30
78876;DHT22;68253;52.506;5.486;2024-01-30T14:38:27;8.00;80.30
78876;DHT22;68253;52.506;5.486;2024-01-30T14:40:54;8.00;80.30
78876;DHT22;68253;52.506;5.486;2024-01-30T14:43:20;8.00;80.40
78876;DHT22;68253;52.506;5.486;2024-01-30T14:45:46;8.00;80.30
78876;DHT22;68253;52.506;5.486;2024-01-30T14:48:15;8.00;80.30
78876;DHT22;68253;52.506;5.486;2024-01-30T14:50:44;8.10;80.30
78876;DHT22;68253;52.506;5.486;2024-01-30T14:53:10;8.00;80.20
78876;DHT22;68253;52.506;5.486;2024-01-30T14:55:36;8.00;80.20
78876;DHT22;68253;52.506;5.486;2024-01-30T14:58:02;8.10;80.20
78876;DHT22;68253;52.506;5.486;2024-01-30T15:00:28;8.10;80.10
78876;DHT22;68253;52.506;5.486;2024-01-30T15:02:55;8.10;80.10
78876;DHT22;68253;52.506;5.486;2024-01-30T15:05:21;8.10;80.00
78876;DHT22;68253;52.506;5.486;2024-01-30T15:07:47;8.00;80.00
78876;DHT22;68253;52.506;5.486;2024-01-30T15:10:13;8.00;79.90
78876;DHT22;68253;52.506;5.486;2024-01-30T15:12:39;8.00;79.90
78876;DHT22;68253;52.506;5.486;2024-01-30T15:15:07;8.00;79.90
78876;DHT22;68253;52.506;5.486;2024-01-30T15:17:33;8.00;80.00
78876;DHT22;68253;52.506;5.486;2024-01-30T15:20:00;8.00;80.00
78876;DHT22;68253;52.506;5.486;2024-01-30T15:22:26;8.00;80.00
78876;DHT22;68253;52.506;5.486;2024-01-30T15:24:52;8.00;80.10
78876;DHT22;68253;52.506;5.486;2024-01-30T15:27:18;8.00;80.10
78876;DHT22;68253;52.506;5.486;2024-01-30T15:29:45;8.00;80.10
78876;DHT22;68253;52.506;5.486;2024-01-30T15:32:11;8.00;80.10
78876;DHT22;68253;52.506;5.486;2024-01-30T15:34:38;8.00;79.90
78876;DHT22;68253;52.506;5.486;2024-01-30T15:37:04;7.90;80.00
78876;DHT22;68253;52.506;5.486;2024-01-30T15:39:30;8.00;80.00
78876;DHT22;68253;52.506;5.486;2024-01-30T15:41:56;8.00;80.00